General Aviation Weather

Text Reports

Enter one or more of the following location identifiers separated by a space:

Zip Code, Four-Character ICAO or Three-Character IATA airport codes.

METAR - Aviation Routine Weather Report
KGWR - Gwinner, North Dakota
Updated at 9:15 PM GMT on May 04, 2015 (4:15 PM CDT):
METAR KGWR 042115Z AUTO 10006KT CLR 20/M01 A3019 RMK A01 P000
TAF - Terminal Area Forecast
KGWR - Gwinner, North Dakota
Updated at 9:15 PM GMT on May 04, 2015 (4:15 PM CDT):
No TAF is currently available for this location.
Decoded:
No decoded TAF is available.
PIREP - Pilot Weather Report
KGWR - Gwinner, North Dakota
Updated at 9:15 PM GMT on May 04, 2015 (4:15 PM CDT):
No PIREP is currently available for this location.
AIRMET - Airmens Meteorological Information
KGWR - Gwinner, North Dakota
Updated at 9:15 PM GMT on May 04, 2015 (4:15 PM CDT):
No AIRMET is currently available for this location.
SIGMET - Significant Meteorological Information
KGWR - Gwinner, North Dakota
Updated at 9:15 PM GMT on May 04, 2015 (4:15 PM CDT):
No SIGMET is currently available for this location.
NOTAM - Notice to Airmen
KGWR - Gwinner, North Dakota
Updated at 9:15 PM GMT on May 04, 2015 (4:15 PM CDT):
No NOTAM is currently available for this location.
Forecast Area
KGWR - Gwinner, North Dakota
Updated at 9:15 PM GMT on May 04, 2015 (4:15 PM CDT):
No NOTAM is currently available for this location.
Aviation Weather Maps